AIQ321 WMKP-VTBD
Flight info
| Callsign | AIQ321 |
|---|---|
| Flight time | 1h 26m |
| Altitude | 38000 |
| Route | UGAMO1A UGAMO Y350 RIGTO M769 GOKEX Y96 EMTIX/N0434F390 Y99 HOTEL SABAI3A |
| Aircraft | A20N/M-SDE2E3FGHIRWXY/LB1 |
Departure
| Time | 2026-04-30 12:56 |
|---|---|
| Airport | Penang International Airport (WMKP) |
Arrival
| Time | 2026-04-30 14:22 |
|---|---|
| Airport | Don Mueang International Airport (VTBD) |
| Time | Latitude | Longitude | Altitude | Speed | Heading |
|---|---|---|---|---|---|
| 2026-04-30 12:24 | 5.29196 | 100.26623 | 18 ft | 0 kts | 312° |
| 2026-04-30 12:45 | 5.29193 | 100.26625 | 19 ft | 1 kts | 312° |
| 2026-04-30 12:45 | 5.29188 | 100.26631 | 20 ft | 1 kts | 312° |
| 2026-04-30 12:46 | 5.29181 | 100.26639 | 18 ft | 2 kts | 312° |
| 2026-04-30 12:46 | 5.29171 | 100.26650 | 21 ft | 2 kts | 312° |
| 2026-04-30 12:46 | 5.29161 | 100.26661 | 21 ft | 3 kts | 312° |
| 2026-04-30 12:46 | 5.29148 | 100.26677 | 19 ft | 3 kts | 298° |
| 2026-04-30 12:47 | 5.29141 | 100.26696 | 18 ft | 2 kts | 271° |
| 2026-04-30 12:47 | 5.29143 | 100.26712 | 18 ft | 2 kts | 243° |
| 2026-04-30 12:47 | 5.29147 | 100.26720 | 21 ft | 0 kts | 225° |
| 2026-04-30 12:51 | 5.29115 | 100.26690 | 19 ft | 9 kts | 223° |
| 2026-04-30 12:52 | 5.29058 | 100.26637 | 18 ft | 13 kts | 221° |
| 2026-04-30 12:52 | 5.28984 | 100.26572 | 18 ft | 16 kts | 222° |
| 2026-04-30 12:52 | 5.28909 | 100.26504 | 18 ft | 12 kts | 224° |
| 2026-04-30 12:52 | 5.28837 | 100.26500 | 18 ft | 13 kts | 137° |
| 2026-04-30 12:53 | 5.28764 | 100.26567 | 18 ft | 14 kts | 152° |
| 2026-04-30 12:53 | 5.28679 | 100.26597 | 19 ft | 8 kts | 143° |
| 2026-04-30 12:53 | 5.28669 | 100.26607 | 18 ft | 0 kts | 134° |
| 2026-04-30 12:54 | 5.28667 | 100.26609 | 18 ft | 2 kts | 133° |
| 2026-04-30 12:54 | 5.28652 | 100.26635 | 18 ft | 7 kts | 113° |
| 2026-04-30 12:54 | 5.28644 | 100.26673 | 18 ft | 10 kts | 92° |
| 2026-04-30 12:54 | 5.28669 | 100.26738 | 18 ft | 0 kts | 41° |
| 2026-04-30 12:55 | 5.28706 | 100.26770 | 18 ft | 32 kts | 41° |
| 2026-04-30 12:55 | 5.29072 | 100.27100 | 21 ft | 105 kts | 43° |
| 2026-04-30 12:55 | 5.29756 | 100.27715 | 19 ft | 158 kts | 41° |
| 2026-04-30 12:56 | 5.30585 | 100.28478 | 561 ft | 156 kts | 41° |
| 2026-04-30 12:56 | 5.31376 | 100.29202 | 1158 ft | 156 kts | 43° |
| 2026-04-30 12:56 | 5.32219 | 100.29945 | 1663 ft | 165 kts | 42° |
| 2026-04-30 12:56 | 5.33121 | 100.30741 | 2091 ft | 181 kts | 42° |
| 2026-04-30 12:57 | 5.34113 | 100.31626 | 2561 ft | 200 kts | 42° |
| 2026-04-30 12:57 | 5.35302 | 100.32457 | 3030 ft | 220 kts | 20° |
| 2026-04-30 12:57 | 5.36894 | 100.32596 | 3611 ft | 242 kts | 354° |
| 2026-04-30 12:57 | 5.38622 | 100.32265 | 4323 ft | 261 kts | 347° |
| 2026-04-30 12:58 | 5.40376 | 100.31803 | 5267 ft | 268 kts | 347° |
| 2026-04-30 12:58 | 5.42231 | 100.31330 | 6206 ft | 275 kts | 349° |
| 2026-04-30 12:58 | 5.44092 | 100.30893 | 7128 ft | 280 kts | 349° |
| 2026-04-30 12:58 | 5.46005 | 100.30472 | 8053 ft | 285 kts | 350° |
| 2026-04-30 12:59 | 5.47966 | 100.30058 | 8995 ft | 289 kts | 350° |
| 2026-04-30 12:59 | 5.49959 | 100.29644 | 9903 ft | 295 kts | 351° |
| 2026-04-30 12:59 | 5.52003 | 100.29223 | 10545 ft | 310 kts | 350° |
| 2026-04-30 12:59 | 5.54196 | 100.28772 | 10860 ft | 334 kts | 350° |
| 2026-04-30 13:00 | 5.56524 | 100.28290 | 11301 ft | 350 kts | 350° |
| 2026-04-30 13:00 | 5.58935 | 100.27788 | 12101 ft | 354 kts | 350° |
| 2026-04-30 13:00 | 5.61366 | 100.27282 | 12900 ft | 360 kts | 350° |
| 2026-04-30 13:00 | 5.63822 | 100.26776 | 13687 ft | 364 kts | 350° |
| 2026-04-30 13:01 | 5.66329 | 100.26254 | 14374 ft | 369 kts | 350° |
| 2026-04-30 13:01 | 5.68865 | 100.25843 | 15070 ft | 371 kts | 357° |
| 2026-04-30 13:01 | 5.71423 | 100.25763 | 15741 ft | 374 kts | 2° |
| 2026-04-30 13:01 | 5.74072 | 100.25755 | 16415 ft | 378 kts | 1° |
| 2026-04-30 13:02 | 5.76718 | 100.25741 | 17079 ft | 382 kts | 1° |
| 2026-04-30 13:02 | 5.79364 | 100.25725 | 17712 ft | 387 kts | 1° |
| 2026-04-30 13:02 | 5.82062 | 100.25707 | 18328 ft | 390 kts | 1° |
| 2026-04-30 13:02 | 5.84801 | 100.25689 | 18879 ft | 394 kts | 1° |
| 2026-04-30 13:03 | 5.87563 | 100.25671 | 19421 ft | 398 kts | 1° |
| 2026-04-30 13:03 | 5.90343 | 100.25652 | 19975 ft | 401 kts | 1° |
| 2026-04-30 13:03 | 5.93148 | 100.25634 | 20515 ft | 405 kts | 1° |
| 2026-04-30 13:03 | 5.95982 | 100.25616 | 21053 ft | 409 kts | 1° |
| 2026-04-30 13:04 | 5.98832 | 100.25597 | 21579 ft | 412 kts | 1° |
| 2026-04-30 13:04 | 6.01732 | 100.25575 | 22046 ft | 417 kts | 1° |
| 2026-04-30 13:04 | 6.04647 | 100.25556 | 22556 ft | 421 kts | 1° |
| 2026-04-30 13:04 | 6.07586 | 100.25544 | 23068 ft | 424 kts | 1° |
| 2026-04-30 13:05 | 6.10550 | 100.25526 | 23544 ft | 428 kts | 1° |
| 2026-04-30 13:05 | 6.13534 | 100.25504 | 23995 ft | 430 kts | 1° |
| 2026-04-30 13:05 | 6.16530 | 100.25482 | 24442 ft | 432 kts | 1° |
| 2026-04-30 13:06 | 6.22580 | 100.25439 | 25310 ft | 436 kts | 1° |
| 2026-04-30 13:06 | 6.25585 | 100.25419 | 25713 ft | 439 kts | 1° |
| 2026-04-30 13:06 | 6.28650 | 100.25399 | 26145 ft | 441 kts | 1° |
| 2026-04-30 13:06 | 6.31725 | 100.25379 | 26550 ft | 443 kts | 1° |
| 2026-04-30 13:07 | 6.34819 | 100.25358 | 26958 ft | 445 kts | 1° |
| 2026-04-30 13:07 | 6.37932 | 100.25338 | 27319 ft | 449 kts | 1° |
| 2026-04-30 13:07 | 6.41068 | 100.25317 | 27667 ft | 452 kts | 1° |
| 2026-04-30 13:07 | 6.44217 | 100.25296 | 28061 ft | 453 kts | 1° |
| 2026-04-30 13:08 | 6.47380 | 100.25274 | 28435 ft | 456 kts | 1° |
| 2026-04-30 13:08 | 6.50569 | 100.25253 | 28796 ft | 458 kts | 1° |
| 2026-04-30 13:08 | 6.53764 | 100.25231 | 29141 ft | 460 kts | 1° |
| 2026-04-30 13:08 | 6.56965 | 100.25210 | 29497 ft | 462 kts | 1° |
| 2026-04-30 13:09 | 6.60201 | 100.25188 | 29856 ft | 465 kts | 1° |
| 2026-04-30 13:09 | 6.63437 | 100.25167 | 30171 ft | 467 kts | 1° |
| 2026-04-30 13:09 | 6.66699 | 100.25145 | 30500 ft | 468 kts | 1° |
| 2026-04-30 13:09 | 6.69911 | 100.25133 | 30829 ft | 470 kts | 2° |
| 2026-04-30 13:10 | 6.73131 | 100.25366 | 31182 ft | 469 kts | 8° |
| 2026-04-30 13:10 | 6.76414 | 100.25739 | 31603 ft | 469 kts | 7° |
| 2026-04-30 13:10 | 6.79613 | 100.26092 | 32043 ft | 467 kts | 7° |
| 2026-04-30 13:10 | 6.82857 | 100.26447 | 32494 ft | 466 kts | 7° |
| 2026-04-30 13:11 | 6.86070 | 100.26798 | 32932 ft | 464 kts | 7° |
| 2026-04-30 13:11 | 6.89279 | 100.27150 | 33338 ft | 463 kts | 7° |
| 2026-04-30 13:11 | 6.92487 | 100.27502 | 33744 ft | 462 kts | 7° |
| 2026-04-30 13:11 | 6.95677 | 100.27853 | 34113 ft | 461 kts | 7° |
| 2026-04-30 13:12 | 6.98863 | 100.28203 | 34428 ft | 460 kts | 7° |
| 2026-04-30 13:12 | 7.02037 | 100.28552 | 34741 ft | 459 kts | 7° |
| 2026-04-30 13:12 | 7.05220 | 100.28903 | 35042 ft | 459 kts | 7° |
| 2026-04-30 13:13 | 7.11571 | 100.29602 | 35650 ft | 458 kts | 7° |
| 2026-04-30 13:13 | 7.14736 | 100.29950 | 35952 ft | 458 kts | 7° |
| 2026-04-30 13:13 | 7.21072 | 100.30648 | 36555 ft | 457 kts | 7° |
| 2026-04-30 13:14 | 7.24232 | 100.30996 | 36716 ft | 457 kts | 7° |
| 2026-04-30 13:14 | 7.33655 | 100.32034 | 36871 ft | 455 kts | 7° |
| 2026-04-30 13:15 | 7.43120 | 100.33077 | 36877 ft | 455 kts | 7° |
| 2026-04-30 13:16 | 7.49415 | 100.33773 | 36869 ft | 455 kts | 6° |
| 2026-04-30 13:16 | 7.55741 | 100.34100 | 36883 ft | 455 kts | 1° |
| 2026-04-30 13:17 | 7.65243 | 100.34315 | 36872 ft | 455 kts | 1° |
| 2026-04-30 13:18 | 7.74720 | 100.34530 | 36877 ft | 455 kts | 1° |
| 2026-04-30 13:18 | 7.84227 | 100.34746 | 36874 ft | 455 kts | 1° |
| 2026-04-30 13:19 | 7.90569 | 100.34890 | 36878 ft | 456 kts | 1° |
| 2026-04-30 13:19 | 7.96908 | 100.35033 | 36881 ft | 455 kts | 1° |
| 2026-04-30 13:20 | 8.03260 | 100.35177 | 36882 ft | 455 kts | 1° |
| 2026-04-30 13:20 | 8.09563 | 100.35320 | 36871 ft | 456 kts | 1° |
| 2026-04-30 13:21 | 8.15898 | 100.35463 | 36875 ft | 455 kts | 1° |
| 2026-04-30 13:22 | 8.25415 | 100.35681 | 36875 ft | 454 kts | 1° |
| 2026-04-30 13:22 | 8.34913 | 100.35896 | 36882 ft | 454 kts | 1° |
| 2026-04-30 13:23 | 8.44376 | 100.36111 | 36885 ft | 454 kts | 1° |
| 2026-04-30 13:24 | 8.57039 | 100.36399 | 36882 ft | 456 kts | 1° |
| 2026-04-30 13:25 | 8.69702 | 100.36689 | 37053 ft | 456 kts | 0° |
| 2026-04-30 13:26 | 8.79166 | 100.36905 | 37806 ft | 456 kts | 0° |
| 2026-04-30 13:26 | 8.85485 | 100.37046 | 37892 ft | 454 kts | 0° |
| 2026-04-30 13:28 | 9.01223 | 100.37423 | 37909 ft | 450 kts | 0° |
| 2026-04-30 13:28 | 9.10611 | 100.37636 | 37907 ft | 451 kts | 0° |
| 2026-04-30 13:29 | 9.23185 | 100.37927 | 37908 ft | 451 kts | 0° |
| 2026-04-30 13:31 | 9.38847 | 100.38298 | 37911 ft | 450 kts | 359° |
| 2026-04-30 13:32 | 9.54509 | 100.38660 | 37905 ft | 450 kts | 359° |
| 2026-04-30 13:33 | 9.66977 | 100.38954 | 37907 ft | 449 kts | 359° |
| 2026-04-30 13:34 | 9.75309 | 100.39157 | 37896 ft | 449 kts | 359° |
| 2026-04-30 13:35 | 9.87839 | 100.39446 | 37899 ft | 450 kts | 359° |
| 2026-04-30 13:36 | 10.00354 | 100.39742 | 37905 ft | 450 kts | 359° |
| 2026-04-30 13:36 | 10.09709 | 100.39964 | 37923 ft | 450 kts | 359° |
| 2026-04-30 13:37 | 10.19102 | 100.40188 | 37919 ft | 449 kts | 359° |
| 2026-04-30 13:38 | 10.28476 | 100.40415 | 37919 ft | 449 kts | 359° |
| 2026-04-30 13:39 | 10.40931 | 100.40715 | 37920 ft | 448 kts | 359° |
| 2026-04-30 13:40 | 10.50212 | 100.40935 | 37914 ft | 444 kts | 359° |
| 2026-04-30 13:40 | 10.56376 | 100.41084 | 37911 ft | 444 kts | 359° |
| 2026-04-30 13:41 | 10.62549 | 100.41234 | 37909 ft | 444 kts | 359° |
| 2026-04-30 13:41 | 10.68739 | 100.41384 | 37911 ft | 444 kts | 359° |
| 2026-04-30 13:42 | 10.74922 | 100.41534 | 37914 ft | 444 kts | 359° |
| 2026-04-30 13:42 | 10.84179 | 100.41758 | 37915 ft | 444 kts | 358° |
| 2026-04-30 13:43 | 10.90363 | 100.41907 | 37914 ft | 444 kts | 358° |
| 2026-04-30 13:43 | 10.96505 | 100.42056 | 37914 ft | 444 kts | 358° |
| 2026-04-30 13:44 | 11.02686 | 100.42205 | 37914 ft | 444 kts | 358° |
| 2026-04-30 13:44 | 11.08840 | 100.42354 | 37913 ft | 444 kts | 358° |
| 2026-04-30 13:45 | 11.18105 | 100.42579 | 37921 ft | 444 kts | 358° |
| 2026-04-30 13:46 | 11.24286 | 100.42725 | 37924 ft | 443 kts | 357° |
| 2026-04-30 13:46 | 11.30355 | 100.41981 | 37918 ft | 437 kts | 343° |
| 2026-04-30 13:47 | 11.35992 | 100.39768 | 37914 ft | 433 kts | 329° |
| 2026-04-30 13:47 | 11.41243 | 100.36819 | 37912 ft | 433 kts | 329° |
| 2026-04-30 13:48 | 11.46514 | 100.33880 | 37910 ft | 433 kts | 329° |
| 2026-04-30 13:48 | 11.51802 | 100.30926 | 37912 ft | 433 kts | 329° |
| 2026-04-30 13:49 | 11.57092 | 100.27967 | 37915 ft | 433 kts | 329° |
| 2026-04-30 13:49 | 11.62345 | 100.25028 | 37914 ft | 433 kts | 329° |
| 2026-04-30 13:50 | 11.67632 | 100.22068 | 37913 ft | 433 kts | 329° |
| 2026-04-30 13:50 | 11.75569 | 100.17623 | 37911 ft | 434 kts | 329° |
| 2026-04-30 13:51 | 11.81115 | 100.15179 | 37913 ft | 437 kts | 343° |
| 2026-04-30 13:51 | 11.87187 | 100.14570 | 37918 ft | 443 kts | 1° |
| 2026-04-30 13:52 | 11.93322 | 100.15488 | 37918 ft | 446 kts | 6° |
| 2026-04-30 13:52 | 11.99447 | 100.16489 | 37920 ft | 446 kts | 6° |
| 2026-04-30 13:53 | 12.05575 | 100.17487 | 37921 ft | 446 kts | 6° |
| 2026-04-30 13:53 | 12.11713 | 100.18490 | 37922 ft | 446 kts | 6° |
| 2026-04-30 13:54 | 12.17846 | 100.19494 | 37921 ft | 446 kts | 6° |
| 2026-04-30 13:54 | 12.23980 | 100.20498 | 37913 ft | 446 kts | 6° |
| 2026-04-30 13:55 | 12.30117 | 100.21503 | 37915 ft | 446 kts | 6° |
| 2026-04-30 13:55 | 12.36230 | 100.22504 | 38091 ft | 447 kts | 6° |
| 2026-04-30 13:56 | 12.39292 | 100.23006 | 38423 ft | 446 kts | 6° |
| 2026-04-30 13:56 | 12.42353 | 100.23509 | 38712 ft | 444 kts | 6° |
| 2026-04-30 13:56 | 12.45409 | 100.24010 | 38847 ft | 445 kts | 6° |
| 2026-04-30 13:56 | 12.48464 | 100.24510 | 38909 ft | 444 kts | 6° |
| 2026-04-30 13:57 | 12.54568 | 100.25512 | 38912 ft | 443 kts | 6° |
| 2026-04-30 13:57 | 12.60658 | 100.26512 | 38891 ft | 441 kts | 6° |
| 2026-04-30 13:58 | 12.63669 | 100.27007 | 38555 ft | 437 kts | 6° |
| 2026-04-30 13:58 | 12.69751 | 100.28004 | 35829 ft | 454 kts | 6° |
| 2026-04-30 13:58 | 12.72924 | 100.28519 | 34308 ft | 466 kts | 6° |
| 2026-04-30 13:59 | 12.76164 | 100.29051 | 32835 ft | 474 kts | 6° |
| 2026-04-30 13:59 | 12.79422 | 100.29584 | 31540 ft | 475 kts | 7° |
| 2026-04-30 13:59 | 12.82658 | 100.30117 | 30316 ft | 476 kts | 7° |
| 2026-04-30 13:59 | 12.85895 | 100.30650 | 29362 ft | 467 kts | 7° |
| 2026-04-30 14:00 | 12.89080 | 100.31177 | 28332 ft | 459 kts | 8° |
| 2026-04-30 14:00 | 12.95312 | 100.32199 | 26582 ft | 442 kts | 7° |
| 2026-04-30 14:00 | 12.98305 | 100.32690 | 26183 ft | 434 kts | 7° |
| 2026-04-30 14:01 | 13.01336 | 100.32968 | 25744 ft | 438 kts | 360° |
| 2026-04-30 14:01 | 13.04400 | 100.32929 | 25102 ft | 441 kts | 357° |
| 2026-04-30 14:01 | 13.07432 | 100.32856 | 24329 ft | 438 kts | 358° |
| 2026-04-30 14:01 | 13.10438 | 100.32789 | 23838 ft | 423 kts | 358° |
| 2026-04-30 14:02 | 13.13336 | 100.32729 | 23218 ft | 412 kts | 359° |
| 2026-04-30 14:02 | 13.16158 | 100.32725 | 22835 ft | 403 kts | 0° |
| 2026-04-30 14:02 | 13.18982 | 100.32752 | 22412 ft | 409 kts | 0° |
| 2026-04-30 14:02 | 13.21833 | 100.32783 | 21851 ft | 407 kts | 0° |
| 2026-04-30 14:03 | 13.24646 | 100.32808 | 21435 ft | 401 kts | 0° |
| 2026-04-30 14:03 | 13.27426 | 100.32828 | 21025 ft | 400 kts | 0° |
| 2026-04-30 14:03 | 13.30214 | 100.32847 | 20603 ft | 399 kts | 360° |
| 2026-04-30 14:03 | 13.32908 | 100.32861 | 20197 ft | 394 kts | 360° |
| 2026-04-30 14:04 | 13.35644 | 100.32876 | 19782 ft | 392 kts | 360° |
| 2026-04-30 14:04 | 13.38367 | 100.32891 | 19377 ft | 391 kts | 360° |
| 2026-04-30 14:04 | 13.41087 | 100.32906 | 18977 ft | 389 kts | 360° |
| 2026-04-30 14:04 | 13.43791 | 100.32869 | 18559 ft | 388 kts | 355° |
| 2026-04-30 14:05 | 13.46454 | 100.32489 | 18118 ft | 384 kts | 347° |
| 2026-04-30 14:05 | 13.49025 | 100.31843 | 17724 ft | 378 kts | 345° |
| 2026-04-30 14:05 | 13.51583 | 100.31205 | 17337 ft | 379 kts | 346° |
| 2026-04-30 14:05 | 13.54144 | 100.30573 | 16980 ft | 376 kts | 346° |
| 2026-04-30 14:06 | 13.56687 | 100.29948 | 16528 ft | 373 kts | 346° |
| 2026-04-30 14:06 | 13.61689 | 100.28715 | 15770 ft | 370 kts | 346° |
| 2026-04-30 14:07 | 13.66664 | 100.27486 | 15004 ft | 365 kts | 345° |
| 2026-04-30 14:07 | 13.69098 | 100.26884 | 14635 ft | 363 kts | 346° |
| 2026-04-30 14:07 | 13.71554 | 100.26277 | 14246 ft | 362 kts | 346° |
| 2026-04-30 14:08 | 13.76430 | 100.26407 | 13773 ft | 346 kts | 21° |
| 2026-04-30 14:08 | 13.78499 | 100.27551 | 13566 ft | 331 kts | 31° |
| 2026-04-30 14:08 | 13.82321 | 100.29948 | 13091 ft | 321 kts | 32° |
| 2026-04-30 14:09 | 13.84232 | 100.31150 | 13026 ft | 322 kts | 32° |
| 2026-04-30 14:09 | 13.86142 | 100.32350 | 13019 ft | 319 kts | 32° |
| 2026-04-30 14:09 | 13.89903 | 100.34712 | 12296 ft | 319 kts | 32° |
| 2026-04-30 14:10 | 13.91792 | 100.35897 | 11694 ft | 317 kts | 32° |
| 2026-04-30 14:10 | 13.93693 | 100.37091 | 11097 ft | 314 kts | 32° |
| 2026-04-30 14:10 | 13.95550 | 100.38257 | 10501 ft | 311 kts | 32° |
| 2026-04-30 14:10 | 13.97371 | 100.39401 | 9936 ft | 308 kts | 32° |
| 2026-04-30 14:11 | 13.99180 | 100.40530 | 9574 ft | 298 kts | 31° |
| 2026-04-30 14:11 | 14.00961 | 100.41646 | 9263 ft | 301 kts | 31° |
| 2026-04-30 14:11 | 14.02748 | 100.42769 | 9112 ft | 299 kts | 31° |
| 2026-04-30 14:11 | 14.04517 | 100.43885 | 9010 ft | 299 kts | 31° |
| 2026-04-30 14:12 | 14.06294 | 100.45005 | 8909 ft | 299 kts | 31° |
| 2026-04-30 14:12 | 14.08066 | 100.46120 | 8808 ft | 299 kts | 31° |
| 2026-04-30 14:12 | 14.09841 | 100.47237 | 8705 ft | 297 kts | 31° |
| 2026-04-30 14:12 | 14.10999 | 100.47965 | 8653 ft | 289 kts | 31° |
| 2026-04-30 14:13 | 14.13207 | 100.49351 | 8466 ft | 270 kts | 32° |
| 2026-04-30 14:13 | 14.14779 | 100.50345 | 8181 ft | 260 kts | 31° |
| 2026-04-30 14:13 | 14.16321 | 100.51315 | 7653 ft | 261 kts | 32° |
| 2026-04-30 14:13 | 14.17898 | 100.52307 | 7018 ft | 267 kts | 32° |
| 2026-04-30 14:14 | 14.19412 | 100.53401 | 6509 ft | 265 kts | 47° |
| 2026-04-30 14:14 | 14.20333 | 100.55013 | 5995 ft | 261 kts | 76° |
| 2026-04-30 14:14 | 14.20431 | 100.56843 | 5493 ft | 256 kts | 97° |
| 2026-04-30 14:14 | 14.20165 | 100.58629 | 5193 ft | 249 kts | 101° |
| 2026-04-30 14:15 | 14.19951 | 100.59802 | 5096 ft | 251 kts | 102° |
| 2026-04-30 14:15 | 14.19639 | 100.61573 | 5001 ft | 252 kts | 101° |
| 2026-04-30 14:15 | 14.19359 | 100.63357 | 4905 ft | 252 kts | 100° |
| 2026-04-30 14:15 | 14.19016 | 100.65121 | 4812 ft | 249 kts | 113° |
| 2026-04-30 14:16 | 14.18043 | 100.66551 | 4506 ft | 245 kts | 141° |
| 2026-04-30 14:16 | 14.16532 | 100.67335 | 4044 ft | 244 kts | 163° |
| 2026-04-30 14:16 | 14.14888 | 100.67781 | 3568 ft | 243 kts | 168° |
| 2026-04-30 14:16 | 14.13249 | 100.68169 | 3148 ft | 241 kts | 168° |
| 2026-04-30 14:17 | 14.11627 | 100.68567 | 2785 ft | 236 kts | 167° |
| 2026-04-30 14:17 | 14.10013 | 100.68992 | 2658 ft | 243 kts | 166° |
| 2026-04-30 14:17 | 14.08433 | 100.69418 | 2621 ft | 224 kts | 171° |
| 2026-04-30 14:17 | 14.06998 | 100.69291 | 2624 ft | 197 kts | 204° |
| 2026-04-30 14:18 | 14.05811 | 100.68718 | 2637 ft | 189 kts | 204° |
| 2026-04-30 14:18 | 14.04604 | 100.68198 | 2571 ft | 186 kts | 201° |
| 2026-04-30 14:18 | 14.02394 | 100.67135 | 2134 ft | 170 kts | 207° |
| 2026-04-30 14:19 | 14.00529 | 100.66104 | 1728 ft | 136 kts | 206° |
| 2026-04-30 14:19 | 13.99728 | 100.65651 | 1555 ft | 128 kts | 207° |
| 2026-04-30 14:19 | 13.98939 | 100.65203 | 1387 ft | 130 kts | 206° |
| 2026-04-30 14:20 | 13.98154 | 100.64764 | 1233 ft | 131 kts | 206° |
| 2026-04-30 14:20 | 13.97367 | 100.64320 | 1048 ft | 126 kts | 206° |
| 2026-04-30 14:20 | 13.95786 | 100.63429 | 766 ft | 134 kts | 206° |
| 2026-04-30 14:21 | 13.94982 | 100.62975 | 591 ft | 131 kts | 206° |
| 2026-04-30 14:21 | 13.94177 | 100.62523 | 426 ft | 132 kts | 205° |
| 2026-04-30 14:21 | 13.92558 | 100.61614 | 83 ft | 131 kts | 207° |
| 2026-04-30 14:22 | 13.91789 | 100.61186 | 19 ft | 107 kts | 208° |
| 2026-04-30 14:22 | 13.91085 | 100.60789 | 19 ft | 40 kts | 211° |
| 2026-04-30 14:22 | 13.90847 | 100.60655 | 19 ft | 39 kts | 208° |
| 2026-04-30 14:23 | 13.90400 | 100.60406 | 19 ft | 36 kts | 208° |
| 2026-04-30 14:23 | 13.90138 | 100.60200 | 17 ft | 9 kts | 271° |
| 2026-04-30 14:24 | 13.90162 | 100.60146 | 18 ft | 0 kts | 300° |
| 2026-04-30 14:25 | 13.90176 | 100.60121 | 18 ft | 7 kts | 300° |
| 2026-04-30 14:26 | 13.90253 | 100.59978 | 17 ft | 16 kts | 298° |
| 2026-04-30 14:26 | 13.90314 | 100.59864 | 16 ft | 20 kts | 298° |
| 2026-04-30 14:26 | 13.90474 | 100.59838 | 17 ft | 17 kts | 28° |
| 2026-04-30 14:27 | 13.90588 | 100.59901 | 16 ft | 20 kts | 30° |
| 2026-04-30 14:27 | 13.90723 | 100.59978 | 17 ft | 23 kts | 28° |
| 2026-04-30 14:27 | 13.90872 | 100.60061 | 17 ft | 26 kts | 28° |
| 2026-04-30 14:28 | 13.91103 | 100.60108 | 17 ft | 14 kts | 37° |
| 2026-04-30 14:28 | 13.91196 | 100.60141 | 19 ft | 13 kts | 336° |
| 2026-04-30 14:28 | 13.91213 | 100.60125 | 17 ft | 3 kts | 313° |
| 2026-04-30 14:28 | 13.91235 | 100.60096 | 17 ft | 6 kts | 327° |
| 2026-04-30 14:29 | 13.91301 | 100.60133 | 19 ft | 2 kts | 31° |
| 2026-04-30 14:29 | 13.91309 | 100.60138 | 17 ft | 0 kts | 31° |